sensor_id;sensor_type;location;lat;lon;timestamp;P1;durP1;ratioP1;P2;durP2;ratioP2
19089;SDS011;9677;50.656;13.064;2023-03-13T00:01:34;11.83;;;10.50;;
19089;SDS011;9677;50.656;13.064;2023-03-13T00:04:06;10.67;;;9.63;;
19089;SDS011;9677;50.656;13.064;2023-03-13T00:06:35;11.60;;;10.17;;
19089;SDS011;9677;50.656;13.064;2023-03-13T00:09:08;10.87;;;9.77;;
19089;SDS011;9677;50.656;13.064;2023-03-13T00:11:39;11.60;;;10.40;;
19089;SDS011;9677;50.656;13.064;2023-03-13T00:14:08;12.90;;;10.30;;
19089;SDS011;9677;50.656;13.064;2023-03-13T00:16:37;12.07;;;10.30;;
19089;SDS011;9677;50.656;13.064;2023-03-13T00:19:06;12.43;;;9.87;;
19089;SDS011;9677;50.656;13.064;2023-03-13T00:21:35;12.30;;;10.70;;
19089;SDS011;9677;50.656;13.064;2023-03-13T00:24:08;11.80;;;10.60;;
19089;SDS011;9677;50.656;13.064;2023-03-13T00:26:38;11.20;;;10.00;;
19089;SDS011;9677;50.656;13.064;2023-03-13T00:29:06;11.47;;;9.90;;
19089;SDS011;9677;50.656;13.064;2023-03-13T00:31:34;10.87;;;9.73;;
19089;SDS011;9677;50.656;13.064;2023-03-13T00:34:03;13.50;;;10.67;;
19089;SDS011;9677;50.656;13.064;2023-03-13T00:36:33;12.00;;;10.70;;
19089;SDS011;9677;50.656;13.064;2023-03-13T00:39:03;12.40;;;10.40;;
19089;SDS011;9677;50.656;13.064;2023-03-13T00:41:35;10.93;;;9.93;;
19089;SDS011;9677;50.656;13.064;2023-03-13T00:44:04;12.37;;;10.40;;
19089;SDS011;9677;50.656;13.064;2023-03-13T00:46:33;14.93;;;10.00;;
19089;SDS011;9677;50.656;13.064;2023-03-13T00:49:03;12.70;;;10.00;;
19089;SDS011;9677;50.656;13.064;2023-03-13T00:51:32;12.20;;;10.77;;
19089;SDS011;9677;50.656;13.064;2023-03-13T00:54:01;11.57;;;10.40;;
19089;SDS011;9677;50.656;13.064;2023-03-13T00:56:31;10.83;;;9.73;;
19089;SDS011;9677;50.656;13.064;2023-03-13T00:59:01;11.23;;;10.07;;
19089;SDS011;9677;50.656;13.064;2023-03-13T01:01:30;11.17;;;9.93;;
19089;SDS011;9677;50.656;13.064;2023-03-13T01:04:01;11.13;;;10.03;;
19089;SDS011;9677;50.656;13.064;2023-03-13T01:06:33;12.70;;;10.13;;
19089;SDS011;9677;50.656;13.064;2023-03-13T01:09:04;13.83;;;9.67;;
19089;SDS011;9677;50.656;13.064;2023-03-13T01:11:35;11.07;;;9.97;;
19089;SDS011;9677;50.656;13.064;2023-03-13T01:14:08;10.50;;;9.40;;
19089;SDS011;9677;50.656;13.064;2023-03-13T01:16:39;11.17;;;10.07;;
19089;SDS011;9677;50.656;13.064;2023-03-13T01:19:09;11.10;;;10.03;;
19089;SDS011;9677;50.656;13.064;2023-03-13T01:21:40;10.93;;;9.93;;
19089;SDS011;9677;50.656;13.064;2023-03-13T01:24:11;10.57;;;9.57;;
19089;SDS011;9677;50.656;13.064;2023-03-13T01:26:42;11.00;;;9.90;;
19089;SDS011;9677;50.656;13.064;2023-03-13T01:29:12;10.57;;;9.60;;
19089;SDS011;9677;50.656;13.064;2023-03-13T01:31:40;10.83;;;9.83;;
19089;SDS011;9677;50.656;13.064;2023-03-13T01:34:09;10.70;;;9.60;;
19089;SDS011;9677;50.656;13.064;2023-03-13T01:36:38;10.87;;;9.80;;
19089;SDS011;9677;50.656;13.064;2023-03-13T01:39:06;11.43;;;10.20;;
19089;SDS011;9677;50.656;13.064;2023-03-13T01:41:35;10.93;;;9.83;;
19089;SDS011;9677;50.656;13.064;2023-03-13T01:44:05;11.67;;;9.73;;
19089;SDS011;9677;50.656;13.064;2023-03-13T01:46:47;11.23;;;10.03;;
19089;SDS011;9677;50.656;13.064;2023-03-13T01:49:16;11.57;;;10.30;;
19089;SDS011;9677;50.656;13.064;2023-03-13T01:52:05;10.90;;;9.90;;
19089;SDS011;9677;50.656;13.064;2023-03-13T01:54:45;13.07;;;10.00;;
19089;SDS011;9677;50.656;13.064;2023-03-13T01:57:20;10.77;;;9.60;;
19089;SDS011;9677;50.656;13.064;2023-03-13T01:59:55;11.30;;;9.70;;
19089;SDS011;9677;50.656;13.064;2023-03-13T02:02:27;11.40;;;10.30;;
19089;SDS011;9677;50.656;13.064;2023-03-13T02:04:59;10.60;;;9.50;;
19089;SDS011;9677;50.656;13.064;2023-03-13T02:07:32;10.97;;;9.87;;
19089;SDS011;9677;50.656;13.064;2023-03-13T02:10:08;10.60;;;9.50;;
19089;SDS011;9677;50.656;13.064;2023-03-13T02:12:39;11.67;;;10.07;;
19089;SDS011;9677;50.656;13.064;2023-03-13T02:15:18;11.33;;;10.20;;
19089;SDS011;9677;50.656;13.064;2023-03-13T02:17:50;11.20;;;10.20;;
19089;SDS011;9677;50.656;13.064;2023-03-13T02:20:20;10.70;;;9.70;;
19089;SDS011;9677;50.656;13.064;2023-03-13T02:22:52;12.60;;;10.43;;
19089;SDS011;9677;50.656;13.064;2023-03-13T02:25:32;11.43;;;10.30;;
19089;SDS011;9677;50.656;13.064;2023-03-13T02:28:08;11.33;;;10.13;;
19089;SDS011;9677;50.656;13.064;2023-03-13T02:30:41;11.13;;;9.97;;
19089;SDS011;9677;50.656;13.064;2023-03-13T02:33:11;11.57;;;10.47;;
19089;SDS011;9677;50.656;13.064;2023-03-13T02:35:41;14.30;;;12.03;;
19089;SDS011;9677;50.656;13.064;2023-03-13T02:38:15;11.37;;;10.37;;
19089;SDS011;9677;50.656;13.064;2023-03-13T02:40:48;12.10;;;10.80;;
19089;SDS011;9677;50.656;13.064;2023-03-13T02:43:20;11.50;;;10.50;;
19089;SDS011;9677;50.656;13.064;2023-03-13T02:46:01;11.20;;;10.20;;
19089;SDS011;9677;50.656;13.064;2023-03-13T02:48:36;11.50;;;10.40;;
19089;SDS011;9677;50.656;13.064;2023-03-13T02:51:09;10.80;;;9.83;;
19089;SDS011;9677;50.656;13.064;2023-03-13T02:53:44;11.23;;;10.23;;
19089;SDS011;9677;50.656;13.064;2023-03-13T02:56:16;11.37;;;10.37;;
19089;SDS011;9677;50.656;13.064;2023-03-13T02:58:47;11.17;;;10.17;;
19089;SDS011;9677;50.656;13.064;2023-03-13T03:01:20;11.33;;;10.33;;
19089;SDS011;9677;50.656;13.064;2023-03-13T03:03:49;11.13;;;10.13;;
19089;SDS011;9677;50.656;13.064;2023-03-13T03:06:17;10.73;;;9.83;;
19089;SDS011;9677;50.656;13.064;2023-03-13T03:08:46;10.93;;;9.93;;
19089;SDS011;9677;50.656;13.064;2023-03-13T03:11:16;11.30;;;10.20;;
19089;SDS011;9677;50.656;13.064;2023-03-13T03:13:49;11.60;;;10.40;;
19089;SDS011;9677;50.656;13.064;2023-03-13T03:16:18;10.90;;;9.90;;
19089;SDS011;9677;50.656;13.064;2023-03-13T03:18:46;10.93;;;9.93;;
19089;SDS011;9677;50.656;13.064;2023-03-13T03:21:15;10.67;;;9.67;;
19089;SDS011;9677;50.656;13.064;2023-03-13T03:23:43;11.00;;;10.00;;
19089;SDS011;9677;50.656;13.064;2023-03-13T03:26:11;10.53;;;9.63;;
19089;SDS011;9677;50.656;13.064;2023-03-13T03:28:41;11.10;;;10.13;;
19089;SDS011;9677;50.656;13.064;2023-03-13T03:31:12;11.07;;;10.07;;
19089;SDS011;9677;50.656;13.064;2023-03-13T03:33:42;11.17;;;10.03;;
19089;SDS011;9677;50.656;13.064;2023-03-13T03:36:14;10.97;;;9.97;;
19089;SDS011;9677;50.656;13.064;2023-03-13T03:38:46;11.67;;;10.53;;
19089;SDS011;9677;50.656;13.064;2023-03-13T03:41:17;11.27;;;10.27;;
19089;SDS011;9677;50.656;13.064;2023-03-13T03:43:47;11.10;;;10.00;;
19089;SDS011;9677;50.656;13.064;2023-03-13T03:46:20;10.63;;;9.70;;
19089;SDS011;9677;50.656;13.064;2023-03-13T03:48:48;10.90;;;9.80;;
19089;SDS011;9677;50.656;13.064;2023-03-13T03:51:17;11.10;;;10.03;;
19089;SDS011;9677;50.656;13.064;2023-03-13T03:53:46;11.37;;;10.37;;
19089;SDS011;9677;50.656;13.064;2023-03-13T03:56:14;11.00;;;10.00;;
19089;SDS011;9677;50.656;13.064;2023-03-13T03:58:49;10.73;;;9.73;;
19089;SDS011;9677;50.656;13.064;2023-03-13T04:01:24;11.47;;;10.20;;
19089;SDS011;9677;50.656;13.064;2023-03-13T04:03:52;11.13;;;10.20;;
19089;SDS011;9677;50.656;13.064;2023-03-13T04:06:20;10.60;;;9.60;;
19089;SDS011;9677;50.656;13.064;2023-03-13T04:08:49;11.60;;;10.50;;
19089;SDS011;9677;50.656;13.064;2023-03-13T04:11:21;10.70;;;9.80;;
19089;SDS011;9677;50.656;13.064;2023-03-13T04:13:53;12.10;;;9.90;;
19089;SDS011;9677;50.656;13.064;2023-03-13T04:16:22;11.23;;;10.23;;
19089;SDS011;9677;50.656;13.064;2023-03-13T04:18:52;11.57;;;10.57;;
19089;SDS011;9677;50.656;13.064;2023-03-13T04:21:23;10.90;;;9.90;;
19089;SDS011;9677;50.656;13.064;2023-03-13T04:24:21;10.80;;;9.90;;
19089;SDS011;9677;50.656;13.064;2023-03-13T04:26:49;11.30;;;10.20;;
19089;SDS011;9677;50.656;13.064;2023-03-13T04:29:20;11.10;;;10.00;;
19089;SDS011;9677;50.656;13.064;2023-03-13T04:31:56;11.90;;;10.77;;
19089;SDS011;9677;50.656;13.064;2023-03-13T04:34:34;11.17;;;10.07;;
19089;SDS011;9677;50.656;13.064;2023-03-13T04:37:02;11.47;;;10.47;;
19089;SDS011;9677;50.656;13.064;2023-03-13T04:39:48;10.90;;;9.90;;
19089;SDS011;9677;50.656;13.064;2023-03-13T04:42:34;10.90;;;9.90;;
19089;SDS011;9677;50.656;13.064;2023-03-13T04:45:14;11.53;;;10.43;;
19089;SDS011;9677;50.656;13.064;2023-03-13T04:48:18;10.97;;;10.00;;
19089;SDS011;9677;50.656;13.064;2023-03-13T04:51:19;11.07;;;9.97;;
19089;SDS011;9677;50.656;13.064;2023-03-13T04:54:13;11.77;;;10.67;;
19089;SDS011;9677;50.656;13.064;2023-03-13T04:56:50;13.37;;;10.50;;
19089;SDS011;9677;50.656;13.064;2023-03-13T04:59:28;13.07;;;9.90;;
19089;SDS011;9677;50.656;13.064;2023-03-13T05:02:17;11.67;;;10.23;;
19089;SDS011;9677;50.656;13.064;2023-03-13T05:05:01;11.10;;;9.90;;
19089;SDS011;9677;50.656;13.064;2023-03-13T05:07:49;10.63;;;9.63;;
19089;SDS011;9677;50.656;13.064;2023-03-13T05:10:32;11.80;;;10.40;;
19089;SDS011;9677;50.656;13.064;2023-03-13T05:13:21;10.97;;;9.70;;
19089;SDS011;9677;50.656;13.064;2023-03-13T05:15:56;11.60;;;10.13;;
19089;SDS011;9677;50.656;13.064;2023-03-13T05:18:46;10.70;;;9.70;;
19089;SDS011;9677;50.656;13.064;2023-03-13T05:21:38;14.30;;;10.57;;
19089;SDS011;9677;50.656;13.064;2023-03-13T05:24:35;12.93;;;10.90;;
19089;SDS011;9677;50.656;13.064;2023-03-13T05:27:25;10.50;;;9.50;;
19089;SDS011;9677;50.656;13.064;2023-03-13T05:30:12;11.57;;;10.40;;
19089;SDS011;9677;50.656;13.064;2023-03-13T05:32:59;12.03;;;9.83;;
19089;SDS011;9677;50.656;13.064;2023-03-13T05:35:45;11.07;;;9.97;;
19089;SDS011;9677;50.656;13.064;2023-03-13T05:38:36;11.10;;;10.00;;
19089;SDS011;9677;50.656;13.064;2023-03-13T05:41:12;11.33;;;10.13;;
19089;SDS011;9677;50.656;13.064;2023-03-13T05:43:54;11.33;;;10.13;;
19089;SDS011;9677;50.656;13.064;2023-03-13T05:46:45;11.47;;;10.37;;
19089;SDS011;9677;50.656;13.064;2023-03-13T05:49:25;10.67;;;9.50;;
19089;SDS011;9677;50.656;13.064;2023-03-13T05:52:18;10.90;;;9.80;;
19089;SDS011;9677;50.656;13.064;2023-03-13T05:55:05;11.23;;;10.20;;
19089;SDS011;9677;50.656;13.064;2023-03-13T05:58:01;11.47;;;9.90;;
19089;SDS011;9677;50.656;13.064;2023-03-13T06:00:49;11.30;;;10.30;;
19089;SDS011;9677;50.656;13.064;2023-03-13T06:03:41;14.20;;;9.50;;
19089;SDS011;9677;50.656;13.064;2023-03-13T06:06:12;11.47;;;9.63;;
19089;SDS011;9677;50.656;13.064;2023-03-13T06:08:48;11.30;;;10.20;;
19089;SDS011;9677;50.656;13.064;2023-03-13T06:11:20;11.67;;;9.90;;
19089;SDS011;9677;50.656;13.064;2023-03-13T06:13:49;10.60;;;9.50;;
19089;SDS011;9677;50.656;13.064;2023-03-13T06:16:38;11.40;;;10.20;;
19089;SDS011;9677;50.656;13.064;2023-03-13T06:19:13;10.67;;;9.77;;
19089;SDS011;9677;50.656;13.064;2023-03-13T06:21:41;11.37;;;10.17;;
19089;SDS011;9677;50.656;13.064;2023-03-13T06:24:11;11.40;;;9.83;;
19089;SDS011;9677;50.656;13.064;2023-03-13T06:26:39;11.17;;;10.07;;
19089;SDS011;9677;50.656;13.064;2023-03-13T06:29:08;11.80;;;10.13;;
19089;SDS011;9677;50.656;13.064;2023-03-13T06:31:37;12.00;;;10.03;;
19089;SDS011;9677;50.656;13.064;2023-03-13T06:34:05;10.63;;;9.50;;
19089;SDS011;9677;50.656;13.064;2023-03-13T06:36:34;13.10;;;9.90;;
19089;SDS011;9677;50.656;13.064;2023-03-13T06:39:03;11.00;;;9.90;;
19089;SDS011;9677;50.656;13.064;2023-03-13T06:41:33;11.20;;;9.80;;
19089;SDS011;9677;50.656;13.064;2023-03-13T06:44:01;11.53;;;10.23;;
19089;SDS011;9677;50.656;13.064;2023-03-13T06:46:30;11.43;;;9.70;;
19089;SDS011;9677;50.656;13.064;2023-03-13T06:48:59;10.90;;;9.80;;
19089;SDS011;9677;50.656;13.064;2023-03-13T06:51:30;10.60;;;9.57;;
19089;SDS011;9677;50.656;13.064;2023-03-13T06:54:00;11.33;;;10.23;;
19089;SDS011;9677;50.656;13.064;2023-03-13T06:56:29;10.20;;;9.20;;
19089;SDS011;9677;50.656;13.064;2023-03-13T06:58:59;10.97;;;9.50;;
19089;SDS011;9677;50.656;13.064;2023-03-13T07:01:27;10.67;;;9.60;;
19089;SDS011;9677;50.656;13.064;2023-03-13T07:03:55;11.20;;;9.57;;
19089;SDS011;9677;50.656;13.064;2023-03-13T07:06:24;10.47;;;9.57;;
19089;SDS011;9677;50.656;13.064;2023-03-13T07:08:53;10.20;;;9.30;;
19089;SDS011;9677;50.656;13.064;2023-03-13T07:11:21;10.23;;;9.23;;
19089;SDS011;9677;50.656;13.064;2023-03-13T07:13:53;11.40;;;10.20;;
19089;SDS011;9677;50.656;13.064;2023-03-13T07:16:42;10.77;;;9.67;;
19089;SDS011;9677;50.656;13.064;2023-03-13T07:19:11;10.73;;;9.70;;
19089;SDS011;9677;50.656;13.064;2023-03-13T07:21:40;10.50;;;9.50;;
19089;SDS011;9677;50.656;13.064;2023-03-13T07:24:09;10.20;;;9.30;;
19089;SDS011;9677;50.656;13.064;2023-03-13T07:26:38;10.70;;;9.80;;
19089;SDS011;9677;50.656;13.064;2023-03-13T07:29:19;11.03;;;9.90;;
19089;SDS011;9677;50.656;13.064;2023-03-13T07:31:49;10.10;;;9.20;;
19089;SDS011;9677;50.656;13.064;2023-03-13T07:34:17;10.30;;;9.40;;
19089;SDS011;9677;50.656;13.064;2023-03-13T07:36:46;10.10;;;9.10;;
19089;SDS011;9677;50.656;13.064;2023-03-13T07:39:14;10.00;;;9.10;;
19089;SDS011;9677;50.656;13.064;2023-03-13T07:41:42;12.17;;;9.70;;
19089;SDS011;9677;50.656;13.064;2023-03-13T07:44:14;10.30;;;9.40;;
19089;SDS011;9677;50.656;13.064;2023-03-13T07:46:43;10.80;;;9.70;;
19089;SDS011;9677;50.656;13.064;2023-03-13T07:49:15;11.10;;;9.73;;
19089;SDS011;9677;50.656;13.064;2023-03-13T07:51:43;10.57;;;9.47;;
19089;SDS011;9677;50.656;13.064;2023-03-13T07:54:13;10.27;;;9.37;;
19089;SDS011;9677;50.656;13.064;2023-03-13T07:56:41;10.43;;;9.43;;
19089;SDS011;9677;50.656;13.064;2023-03-13T07:59:10;10.20;;;9.30;;
19089;SDS011;9677;50.656;13.064;2023-03-13T08:01:38;10.33;;;9.43;;
19089;SDS011;9677;50.656;13.064;2023-03-13T08:04:07;10.40;;;9.30;;
19089;SDS011;9677;50.656;13.064;2023-03-13T08:06:40;10.33;;;9.43;;
19089;SDS011;9677;50.656;13.064;2023-03-13T08:09:08;10.20;;;9.30;;
19089;SDS011;9677;50.656;13.064;2023-03-13T08:11:37;10.40;;;9.50;;
19089;SDS011;9677;50.656;13.064;2023-03-13T08:14:07;9.73;;;8.93;;
19089;SDS011;9677;50.656;13.064;2023-03-13T08:16:35;10.17;;;9.17;;
19089;SDS011;9677;50.656;13.064;2023-03-13T08:19:04;10.67;;;9.67;;
19089;SDS011;9677;50.656;13.064;2023-03-13T08:21:32;9.83;;;9.03;;
19089;SDS011;9677;50.656;13.064;2023-03-13T08:24:04;10.33;;;9.37;;
19089;SDS011;9677;50.656;13.064;2023-03-13T08:26:36;10.37;;;9.47;;
19089;SDS011;9677;50.656;13.064;2023-03-13T08:29:07;10.00;;;9.10;;
19089;SDS011;9677;50.656;13.064;2023-03-13T08:31:41;9.90;;;9.00;;
19089;SDS011;9677;50.656;13.064;2023-03-13T08:34:13;9.87;;;8.97;;
19089;SDS011;9677;50.656;13.064;2023-03-13T08:36:43;9.90;;;9.10;;
19089;SDS011;9677;50.656;13.064;2023-03-13T08:39:14;9.83;;;9.03;;
19089;SDS011;9677;50.656;13.064;2023-03-13T08:41:44;9.50;;;8.70;;
19089;SDS011;9677;50.656;13.064;2023-03-13T08:44:13;12.80;;;9.00;;
19089;SDS011;9677;50.656;13.064;2023-03-13T08:46:45;9.80;;;9.00;;
19089;SDS011;9677;50.656;13.064;2023-03-13T08:49:14;10.00;;;9.10;;
19089;SDS011;9677;50.656;13.064;2023-03-13T08:51:43;9.93;;;9.13;;
19089;SDS011;9677;50.656;13.064;2023-03-13T08:54:13;10.30;;;9.40;;
19089;SDS011;9677;50.656;13.064;2023-03-13T08:56:41;9.60;;;8.70;;
19089;SDS011;9677;50.656;13.064;2023-03-13T08:59:10;10.43;;;9.53;;
19089;SDS011;9677;50.656;13.064;2023-03-13T09:01:40;9.63;;;8.83;;
19089;SDS011;9677;50.656;13.064;2023-03-13T09:04:09;9.67;;;8.83;;
19089;SDS011;9677;50.656;13.064;2023-03-13T09:06:37;9.97;;;9.07;;
19089;SDS011;9677;50.656;13.064;2023-03-13T09:09:06;9.70;;;8.90;;
19089;SDS011;9677;50.656;13.064;2023-03-13T09:11:37;9.90;;;9.00;;
19089;SDS011;9677;50.656;13.064;2023-03-13T09:14:06;9.50;;;8.70;;
19089;SDS011;9677;50.656;13.064;2023-03-13T09:16:36;9.50;;;8.70;;
19089;SDS011;9677;50.656;13.064;2023-03-13T09:19:05;10.13;;;9.23;;
19089;SDS011;9677;50.656;13.064;2023-03-13T09:21:33;9.73;;;8.93;;
19089;SDS011;9677;50.656;13.064;2023-03-13T09:24:03;9.60;;;8.80;;
19089;SDS011;9677;50.656;13.064;2023-03-13T09:26:32;9.80;;;9.00;;
19089;SDS011;9677;50.656;13.064;2023-03-13T09:29:02;9.93;;;9.13;;
19089;SDS011;9677;50.656;13.064;2023-03-13T09:31:30;9.63;;;8.83;;
19089;SDS011;9677;50.656;13.064;2023-03-13T09:34:00;9.83;;;9.03;;
19089;SDS011;9677;50.656;13.064;2023-03-13T09:36:29;9.63;;;8.83;;
19089;SDS011;9677;50.656;13.064;2023-03-13T09:38:58;9.87;;;9.00;;
19089;SDS011;9677;50.656;13.064;2023-03-13T09:41:28;10.03;;;9.20;;
19089;SDS011;9677;50.656;13.064;2023-03-13T09:44:07;9.63;;;8.83;;
19089;SDS011;9677;50.656;13.064;2023-03-13T09:46:43;9.60;;;8.80;;
19089;SDS011;9677;50.656;13.064;2023-03-13T09:49:22;9.67;;;8.87;;
19089;SDS011;9677;50.656;13.064;2023-03-13T09:52:02;9.50;;;8.70;;
19089;SDS011;9677;50.656;13.064;2023-03-13T09:54:42;9.30;;;8.50;;
19089;SDS011;9677;50.656;13.064;2023-03-13T09:57:22;9.57;;;8.77;;
19089;SDS011;9677;50.656;13.064;2023-03-13T09:59:59;9.50;;;8.70;;
19089;SDS011;9677;50.656;13.064;2023-03-13T10:02:37;9.70;;;8.90;;
19089;SDS011;9677;50.656;13.064;2023-03-13T10:05:11;9.47;;;8.67;;
19089;SDS011;9677;50.656;13.064;2023-03-13T10:07:44;9.57;;;8.77;;
19089;SDS011;9677;50.656;13.064;2023-03-13T10:10:13;9.60;;;8.80;;
19089;SDS011;9677;50.656;13.064;2023-03-13T10:12:45;9.87;;;9.07;;
19089;SDS011;9677;50.656;13.064;2023-03-13T10:15:30;9.27;;;8.57;;
19089;SDS011;9677;50.656;13.064;2023-03-13T10:18:12;9.50;;;8.70;;
19089;SDS011;9677;50.656;13.064;2023-03-13T10:20:47;9.53;;;8.73;;
19089;SDS011;9677;50.656;13.064;2023-03-13T10:23:20;10.00;;;9.10;;
19089;SDS011;9677;50.656;13.064;2023-03-13T10:25:53;9.90;;;9.00;;
19089;SDS011;9677;50.656;13.064;2023-03-13T10:28:22;9.93;;;9.00;;
19089;SDS011;9677;50.656;13.064;2023-03-13T10:30:53;9.70;;;8.87;;
19089;SDS011;9677;50.656;13.064;2023-03-13T10:33:29;9.87;;;8.97;;
19089;SDS011;9677;50.656;13.064;2023-03-13T10:36:03;9.63;;;8.83;;
19089;SDS011;9677;50.656;13.064;2023-03-13T10:38:55;9.47;;;8.67;;
19089;SDS011;9677;50.656;13.064;2023-03-13T10:41:25;9.60;;;8.80;;
19089;SDS011;9677;50.656;13.064;2023-03-13T10:43:58;10.00;;;9.10;;
19089;SDS011;9677;50.656;13.064;2023-03-13T10:46:30;9.30;;;8.60;;
19089;SDS011;9677;50.656;13.064;2023-03-13T10:49:01;9.67;;;8.87;;
19089;SDS011;9677;50.656;13.064;2023-03-13T10:51:34;9.80;;;9.00;;
19089;SDS011;9677;50.656;13.064;2023-03-13T10:54:14;9.43;;;8.63;;
19089;SDS011;9677;50.656;13.064;2023-03-13T10:56:49;9.10;;;8.40;;
19089;SDS011;9677;50.656;13.064;2023-03-13T10:59:21;9.60;;;8.80;;
19089;SDS011;9677;50.656;13.064;2023-03-13T11:01:59;9.50;;;8.70;;
19089;SDS011;9677;50.656;13.064;2023-03-13T11:04:29;9.70;;;8.83;;
19089;SDS011;9677;50.656;13.064;2023-03-13T11:07:00;9.60;;;8.80;;
19089;SDS011;9677;50.656;13.064;2023-03-13T11:09:32;9.43;;;8.53;;
19089;SDS011;9677;50.656;13.064;2023-03-13T11:12:01;9.57;;;8.77;;
19089;SDS011;9677;50.656;13.064;2023-03-13T11:14:33;9.30;;;8.50;;
19089;SDS011;9677;50.656;13.064;2023-03-13T11:17:07;9.70;;;8.80;;
19089;SDS011;9677;50.656;13.064;2023-03-13T11:19:52;9.40;;;8.60;;
19089;SDS011;9677;50.656;13.064;2023-03-13T11:22:37;9.50;;;8.70;;
19089;SDS011;9677;50.656;13.064;2023-03-13T11:25:17;9.97;;;8.97;;
19089;SDS011;9677;50.656;13.064;2023-03-13T11:27:56;9.83;;;8.93;;
19089;SDS011;9677;50.656;13.064;2023-03-13T11:30:54;9.47;;;8.67;;
19089;SDS011;9677;50.656;13.064;2023-03-13T11:33:37;9.73;;;8.83;;
19089;SDS011;9677;50.656;13.064;2023-03-13T11:36:20;10.00;;;9.00;;
19089;SDS011;9677;50.656;13.064;2023-03-13T11:38:54;10.10;;;9.10;;
19089;SDS011;9677;50.656;13.064;2023-03-13T11:41:48;10.10;;;9.10;;
19089;SDS011;9677;50.656;13.064;2023-03-13T11:44:30;9.97;;;9.07;;
19089;SDS011;9677;50.656;13.064;2023-03-13T11:47:13;9.60;;;8.70;;
19089;SDS011;9677;50.656;13.064;2023-03-13T11:49:59;9.83;;;8.93;;
19089;SDS011;9677;50.656;13.064;2023-03-13T11:52:47;9.13;;;8.43;;
19089;SDS011;9677;50.656;13.064;2023-03-13T11:55:28;9.73;;;8.83;;
19089;SDS011;9677;50.656;13.064;2023-03-13T11:58:31;9.67;;;8.87;;
19089;SDS011;9677;50.656;13.064;2023-03-13T12:01:10;9.80;;;8.87;;
19089;SDS011;9677;50.656;13.064;2023-03-13T12:03:49;9.40;;;8.60;;
19089;SDS011;9677;50.656;13.064;2023-03-13T12:06:28;9.30;;;8.50;;
19089;SDS011;9677;50.656;13.064;2023-03-13T12:09:02;9.70;;;8.80;;
19089;SDS011;9677;50.656;13.064;2023-03-13T12:11:38;9.70;;;8.70;;
19089;SDS011;9677;50.656;13.064;2023-03-13T12:14:14;9.40;;;8.60;;
19089;SDS011;9677;50.656;13.064;2023-03-13T12:16:48;9.50;;;8.70;;
19089;SDS011;9677;50.656;13.064;2023-03-13T12:19:21;9.90;;;8.90;;
19089;SDS011;9677;50.656;13.064;2023-03-13T12:21:58;9.80;;;8.90;;
19089;SDS011;9677;50.656;13.064;2023-03-13T12:24:40;9.17;;;8.40;;
19089;SDS011;9677;50.656;13.064;2023-03-13T12:27:16;9.60;;;8.70;;
19089;SDS011;9677;50.656;13.064;2023-03-13T12:29:51;9.30;;;8.50;;
19089;SDS011;9677;50.656;13.064;2023-03-13T12:32:26;9.20;;;8.43;;
19089;SDS011;9677;50.656;13.064;2023-03-13T12:35:06;9.50;;;8.70;;
19089;SDS011;9677;50.656;13.064;2023-03-13T12:37:45;9.30;;;8.50;;
19089;SDS011;9677;50.656;13.064;2023-03-13T12:40:22;9.57;;;8.67;;
19089;SDS011;9677;50.656;13.064;2023-03-13T12:42:57;9.33;;;8.53;;
19089;SDS011;9677;50.656;13.064;2023-03-13T12:45:31;9.80;;;8.80;;
19089;SDS011;9677;50.656;13.064;2023-03-13T12:51:12;9.33;;;8.53;;
19089;SDS011;9677;50.656;13.064;2023-03-13T12:57:02;9.50;;;8.70;;
19089;SDS011;9677;50.656;13.064;2023-03-13T12:59:56;9.13;;;8.33;;
19089;SDS011;9677;50.656;13.064;2023-03-13T13:02:31;9.20;;;8.40;;
19089;SDS011;9677;50.656;13.064;2023-03-13T13:05:00;9.60;;;8.70;;
19089;SDS011;9677;50.656;13.064;2023-03-13T13:07:29;9.20;;;8.40;;
19089;SDS011;9677;50.656;13.064;2023-03-13T13:10:18;9.40;;;8.60;;
19089;SDS011;9677;50.656;13.064;2023-03-13T13:16:01;9.83;;;8.93;;
19089;SDS011;9677;50.656;13.064;2023-03-13T13:25:38;9.40;;;8.60;;
19089;SDS011;9677;50.656;13.064;2023-03-13T13:28:34;9.30;;;8.50;;
19089;SDS011;9677;50.656;13.064;2023-03-13T13:55:47;9.50;;;8.50;;
19089;SDS011;9677;50.656;13.064;2023-03-13T13:58:18;9.00;;;8.20;;
19089;SDS011;9677;50.656;13.064;2023-03-13T14:00:51;9.53;;;8.70;;
19089;SDS011;9677;50.656;13.064;2023-03-13T14:06:13;9.23;;;8.43;;
19089;SDS011;9677;50.656;13.064;2023-03-13T14:08:49;9.40;;;8.40;;
19089;SDS011;9677;50.656;13.064;2023-03-13T14:11:23;10.77;;;8.40;;
19089;SDS011;9677;50.656;13.064;2023-03-13T14:14:12;9.67;;;8.77;;
19089;SDS011;9677;50.656;13.064;2023-03-13T14:16:43;9.40;;;8.50;;
19089;SDS011;9677;50.656;13.064;2023-03-13T14:19:22;9.50;;;8.70;;
19089;SDS011;9677;50.656;13.064;2023-03-13T14:21:57;9.77;;;8.60;;
19089;SDS011;9677;50.656;13.064;2023-03-13T14:24:29;9.30;;;8.50;;
19089;SDS011;9677;50.656;13.064;2023-03-13T14:26:58;9.30;;;8.40;;
19089;SDS011;9677;50.656;13.064;2023-03-13T14:29:27;9.30;;;8.40;;
19089;SDS011;9677;50.656;13.064;2023-03-13T14:31:56;9.27;;;8.47;;
19089;SDS011;9677;50.656;13.064;2023-03-13T14:34:26;9.30;;;8.50;;
19089;SDS011;9677;50.656;13.064;2023-03-13T14:36:58;9.40;;;8.50;;
19089;SDS011;9677;50.656;13.064;2023-03-13T14:39:45;9.53;;;8.63;;
19089;SDS011;9677;50.656;13.064;2023-03-13T14:42:15;9.00;;;8.30;;
19089;SDS011;9677;50.656;13.064;2023-03-13T14:44:46;9.30;;;8.50;;
19089;SDS011;9677;50.656;13.064;2023-03-13T14:47:18;9.20;;;8.20;;
19089;SDS011;9677;50.656;13.064;2023-03-13T14:49:55;9.10;;;8.30;;
19089;SDS011;9677;50.656;13.064;2023-03-13T14:52:26;9.57;;;8.67;;
19089;SDS011;9677;50.656;13.064;2023-03-13T14:54:58;9.00;;;8.20;;
19089;SDS011;9677;50.656;13.064;2023-03-13T14:57:30;9.20;;;8.40;;
19089;SDS011;9677;50.656;13.064;2023-03-13T15:05:48;9.63;;;8.70;;
19089;SDS011;9677;50.656;13.064;2023-03-13T15:08:28;9.43;;;8.53;;
19089;SDS011;9677;50.656;13.064;2023-03-13T15:10:59;9.00;;;8.30;;
19089;SDS011;9677;50.656;13.064;2023-03-13T15:13:32;9.30;;;8.50;;
19089;SDS011;9677;50.656;13.064;2023-03-13T15:16:09;9.70;;;8.90;;
19089;SDS011;9677;50.656;13.064;2023-03-13T15:18:42;9.37;;;8.57;;
19089;SDS011;9677;50.656;13.064;2023-03-13T15:21:27;9.20;;;8.40;;
19089;SDS011;9677;50.656;13.064;2023-03-13T15:23:58;9.10;;;8.30;;
19089;SDS011;9677;50.656;13.064;2023-03-13T15:26:30;10.20;;;8.57;;
19089;SDS011;9677;50.656;13.064;2023-03-13T15:28:58;9.30;;;8.40;;
19089;SDS011;9677;50.656;13.064;2023-03-13T15:31:27;9.27;;;8.47;;
19089;SDS011;9677;50.656;13.064;2023-03-13T15:33:56;9.07;;;8.30;;
19089;SDS011;9677;50.656;13.064;2023-03-13T15:36:26;9.50;;;8.60;;
19089;SDS011;9677;50.656;13.064;2023-03-13T15:38:56;9.30;;;8.50;;
19089;SDS011;9677;50.656;13.064;2023-03-13T15:41:25;9.83;;;8.40;;
19089;SDS011;9677;50.656;13.064;2023-03-13T15:43:54;9.30;;;8.50;;
19089;SDS011;9677;50.656;13.064;2023-03-13T15:46:23;9.37;;;8.57;;
19089;SDS011;9677;50.656;13.064;2023-03-13T15:48:53;9.20;;;8.40;;
19089;SDS011;9677;50.656;13.064;2023-03-13T15:51:21;9.17;;;8.37;;
19089;SDS011;9677;50.656;13.064;2023-03-13T15:53:50;9.10;;;8.30;;
19089;SDS011;9677;50.656;13.064;2023-03-13T15:56:19;9.10;;;8.30;;
19089;SDS011;9677;50.656;13.064;2023-03-13T15:58:49;8.97;;;8.20;;
19089;SDS011;9677;50.656;13.064;2023-03-13T16:01:19;9.10;;;8.30;;
19089;SDS011;9677;50.656;13.064;2023-03-13T16:03:48;9.20;;;8.40;;
19089;SDS011;9677;50.656;13.064;2023-03-13T16:06:18;9.40;;;8.60;;